Time;durP1;ratioP1;P1;durP2;ratioP2;P2;SDS_P1;SDS_P2;PMS_P1;PMS_P2;Temp;Humidity;BMP_temperature;BMP_pressure;BME280_temperature;BME280_humidity;BME280_pressure;Samples;Min_cycle;Max_cycle;Signal;HPM_P1;HPM_P2
2021/03/20 00:00:59;;;;;;;26.50;15.88;;;;;;;7.43;54.51;100471.89;1795026;79;21133;-77
2021/03/20 00:03:26;;;;;;;22.32;14.63;;;;;;;7.42;54.62;100466.71;1796304;78;21118;-78
2021/03/20 00:05:54;;;;;;;21.17;12.75;;;;;;;7.45;54.67;100469.95;1797255;79;21123;-76
2021/03/20 00:08:23;;;;;;;23.75;11.88;;;;;;;7.47;54.69;100464.47;1794141;79;21657;-76
2021/03/20 00:10:53;;;;;;;19.95;10.70;;;;;;;7.46;54.64;100468.97;1793745;79;21130;-78
2021/03/20 00:13:22;;;;;;;23.83;11.12;;;;;;;7.47;54.68;100463.14;1792825;79;21134;-78
2021/03/20 00:15:49;;;;;;;21.12;10.38;;;;;;;7.45;54.62;100452.62;1791956;79;21317;-76
2021/03/20 00:18:16;;;;;;;16.55;10.38;;;;;;;7.42;54.67;100452.89;1791679;79;21210;-76
2021/03/20 00:20:43;;;;;;;;;;;;;;;7.37;54.76;100456.47;1796031;79;21146;-76
2021/03/20 00:23:10;;;;;;;25.07;13.27;;;;;;;7.33;54.92;100457.23;1799412;79;20220;-76
2021/03/20 00:25:38;;;;;;;23.77;12.53;;;;;;;7.33;55.01;100460.38;1786910;80;21184;-76
2021/03/20 00:28:07;;;;;;;18.98;11.80;;;;;;;7.36;55.06;100453.45;1792960;78;21082;-76
2021/03/20 00:30:35;;;;;;;25.92;12.68;;;;;;;7.35;55.00;100453.92;1794711;79;21190;-77
2021/03/20 00:33:02;;;;;;;21.57;13.35;;;;;;;7.30;55.03;100458.82;1795324;79;21158;-76
2021/03/20 00:35:31;;;;;;;32.50;15.70;;;;;;;7.24;55.13;100453.21;1792738;79;21142;-76
2021/03/20 00:37:59;;;;;;;38.33;16.20;;;;;;;7.23;55.32;100450.20;1792763;79;21671;-76
2021/03/20 00:40:29;;;;;;;50.15;23.00;;;;;;;7.29;55.33;100453.64;1795799;78;21165;-76
2021/03/20 00:42:56;;;;;;;51.73;23.75;;;;;;;7.31;55.28;100451.66;1795266;79;21085;-77
2021/03/20 00:45:25;;;;;;;48.23;22.98;;;;;;;7.35;55.33;100450.41;1797684;78;21173;-76
2021/03/20 00:47:53;;;;;;;57.67;25.35;;;;;;;7.41;55.21;100447.22;1795532;79;21150;-77
2021/03/20 00:50:24;;;;;;;25.20;14.70;;;;;;;7.41;55.13;100449.88;1794453;79;21221;-76
2021/03/20 00:52:51;;;;;;;29.50;15.72;;;;;;;7.39;55.15;100450.50;1777338;79;21213;-76
2021/03/20 00:55:18;;;;;;;;;;;;;;;7.37;55.27;100444.48;1795135;79;21173;-75
2021/03/20 00:57:45;;;;;;;28.62;14.65;;;;;;;7.40;55.27;100442.84;1789792;79;20284;-75
2021/03/20 01:00:19;;;;;;;19.32;10.98;;;;;;;7.41;55.33;100447.22;1791614;79;21177;-76
2021/03/20 01:02:46;;;;;;;22.67;11.33;;;;;;;7.42;55.22;100446.23;1791078;79;21488;-76
2021/03/20 01:05:14;;;;;;;17.40;9.38;;;;;;;7.42;55.25;100442.73;1793193;79;21197;-76
2021/03/20 01:07:41;;;;;;;16.90;8.63;;;;;;;7.42;55.25;100442.23;1795627;79;21137;-79
2021/03/20 01:10:19;;;;;;;17.95;9.00;;;;;;;7.38;55.13;100448.82;1792860;79;21153;-76
2021/03/20 01:12:46;;;;;;;;;;;;;;;7.32;55.19;100445.38;1798303;79;21574;-76
2021/03/20 01:15:14;;;;;;;15.48;8.70;;;;;;;7.32;55.28;100442.72;1795908;79;20211;-77
2021/03/20 01:17:42;;;;;;;18.10;10.05;;;;;;;7.31;55.32;100444.55;1777932;79;21146;-77
2021/03/20 01:20:11;;;;;;;16.97;9.28;;;;;;;7.30;55.38;100441.99;1795016;79;21154;-76
2021/03/20 01:22:38;;;;;;;24.23;10.05;;;;;;;7.31;55.36;100447.67;1792255;79;21194;-77
2021/03/20 01:25:08;;;;;;;22.02;8.70;;;;;;;7.30;55.32;100447.33;1795260;79;21123;-76
2021/03/20 01:27:35;;;;;;;17.92;7.95;;;;;;;7.26;55.37;100441.91;1768924;79;21137;-76
2021/03/20 01:30:07;;;;;;;18.42;9.25;;;;;;;7.26;55.45;100445.91;1796032;79;21135;-76
2021/03/20 01:32:36;;;;;;;14.15;8.18;;;;;;;7.25;55.40;100442.41;1790916;79;21047;-77
2021/03/20 01:35:06;;;;;;;17.98;10.23;;;;;;;7.25;55.44;100441.57;1792812;79;21079;-76
2021/03/20 01:37:33;;;;;;;19.55;8.25;;;;;;;7.21;55.42;100442.82;1792056;79;21130;-76
2021/03/20 01:40:00;;;;;;;20.62;10.40;;;;;;;7.19;55.53;100441.64;1796292;79;21131;-77
2021/03/20 01:42:27;;;;;;;17.12;9.15;;;;;;;7.26;55.51;100438.76;1793121;79;21218;-76
2021/03/20 01:45:28;;;;;;;23.15;9.95;;;;;;;7.26;55.41;100436.09;1792852;79;21522;-77
2021/03/20 01:48:26;;;;;;;16.80;8.83;;;;;;;7.25;55.52;100437.08;1794710;79;21066;-77
2021/03/20 01:51:03;;;;;;;25.20;11.20;;;;;;;7.23;55.52;100441.72;1794162;79;25985;-75
2021/03/20 01:53:44;;;;;;;20.12;10.45;;;;;;;7.22;55.49;100440.04;1792950;79;21150;-75
2021/03/20 01:56:19;;;;;;;21.42;12.03;;;;;;;7.22;55.48;100449.83;1798828;79;21157;-76
2021/03/20 01:58:47;;;;;;;18.75;10.13;;;;;;;7.18;55.43;100439.12;1796119;78;21082;-76
2021/03/20 02:01:20;;;;;;;17.80;10.68;;;;;;;7.17;55.48;100442.73;1791777;79;21116;-76
2021/03/20 02:03:47;;;;;;;15.30;9.95;;;;;;;7.18;55.44;100446.62;1792403;78;21065;-76
2021/03/20 02:06:17;;;;;;;15.85;9.70;;;;;;;7.21;55.42;100444.16;1792564;79;21092;-76
2021/03/20 02:08:46;;;;;;;18.10;10.18;;;;;;;7.25;55.39;100440.23;1796623;79;21099;-77
2021/03/20 02:11:41;;;;;;;17.65;10.72;;;;;;;7.31;55.28;100442.34;1795506;79;21121;-76
2021/03/20 02:14:37;;;;;;;22.55;12.80;;;;;;;7.35;55.29;100440.59;1790087;79;21570;-76
2021/03/20 02:17:33;;;;;;;23.02;12.60;;;;;;;7.45;55.06;100445.97;1783417;79;21050;-77
2021/03/20 02:20:43;;;;;;;23.57;13.00;;;;;;;7.50;54.91;100447.72;1791310;79;21104;-76
2021/03/20 02:23:36;;;;;;;21.85;11.53;;;;;;;7.55;54.83;100443.31;1784219;80;21691;-78
2021/03/20 02:26:56;;;;;;;21.15;11.78;;;;;;;7.61;54.57;100440.08;1782711;80;21631;-76
2021/03/20 02:29:55;;;;;;;20.82;10.65;;;;;;;7.60;54.47;100445.90;1783608;80;21189;-77
2021/03/20 02:32:50;;;;;;;16.77;10.75;;;;;;;7.59;54.42;100442.89;1783216;80;21588;-77
2021/03/20 02:35:35;;;;;;;18.30;10.23;;;;;;;7.57;54.44;100440.84;1783510;80;21069;-77
2021/03/20 02:38:17;;;;;;;21.62;10.13;;;;;;;7.52;54.54;100446.23;1783390;80;21125;-76
2021/03/20 02:41:10;;;;;;;18.17;9.33;;;;;;;7.52;54.54;100453.74;1783438;80;21200;-76
2021/03/20 02:44:09;;;;;;;16.60;8.98;;;;;;;7.50;54.55;100443.72;1783751;80;21082;-77
2021/03/20 02:47:01;;;;;;;18.95;9.68;;;;;;;7.49;54.58;100452.67;1782417;80;21165;-76
2021/03/20 02:50:00;;;;;;;21.15;9.48;;;;;;;7.47;54.63;100449.81;1782494;80;21185;-76
2021/03/20 02:52:38;;;;;;;20.92;9.58;;;;;;;7.49;54.73;100449.17;1781973;80;21181;-77
2021/03/20 02:55:10;;;;;;;24.70;11.22;;;;;;;7.56;54.65;100445.83;1786449;79;21163;-76
2021/03/20 02:57:57;;;;;;;29.15;14.33;;;;;;;7.61;54.59;100450.73;1759682;80;21358;-76
2021/03/20 03:00:36;;;;;;;41.77;19.25;;;;;;;7.64;54.53;100451.80;1784951;80;21150;-76
2021/03/20 03:03:03;;;;;;;34.10;20.40;;;;;;;7.63;54.40;100451.45;1796761;79;21466;-77
2021/03/20 03:05:46;;;;;;;42.33;21.65;;;;;;;7.61;54.40;100447.58;1783298;80;21125;-77
2021/03/20 03:08:31;;;;;;;40.50;22.45;;;;;;;7.57;54.39;100444.84;1795074;79;21140;-76
2021/03/20 03:11:03;;;;;;;39.27;22.20;;;;;;;7.53;54.51;100448.75;1811417;79;21678;-78
2021/03/20 03:13:45;;;;;;;40.43;20.23;;;;;;;7.52;54.58;100452.41;1792947;79;21141;-76
2021/03/20 03:16:29;;;;;;;37.23;20.75;;;;;;;7.53;54.61;100451.91;1814891;79;21199;-76
2021/03/20 03:19:00;;;;;;;39.30;21.15;;;;;;;7.53;54.64;100451.91;1814848;79;21599;-76
2021/03/20 03:21:29;;;;;;;39.50;18.55;;;;;;;7.56;54.70;100451.65;1815853;79;21109;-77
2021/03/20 03:23:56;;;;;;;39.30;19.30;;;;;;;7.59;54.69;100452.72;1815785;79;21046;-77
2021/03/20 03:26:31;;;;;;;36.77;20.23;;;;;;;7.62;54.68;100447.08;1815831;79;21153;-76
2021/03/20 03:29:08;;;;;;;42.58;19.77;;;;;;;7.65;54.58;100453.97;1815779;79;21103;-77
2021/03/20 03:31:47;;;;;;;32.38;14.20;;;;;;;7.67;54.49;100452.00;1815547;79;21078;-77
2021/03/20 03:34:23;;;;;;;29.35;13.65;;;;;;;7.68;54.45;100456.38;1815241;78;21201;-77
2021/03/20 03:37:11;;;;;;;26.62;14.55;;;;;;;7.68;54.50;100453.70;1814739;79;21564;-76
2021/03/20 03:39:49;;;;;;;24.98;13.78;;;;;;;7.71;54.54;100464.06;1796782;79;21169;-77
2021/03/20 03:42:18;;;;;;;30.90;14.13;;;;;;;7.74;54.40;100459.80;1794750;79;21083;-77
2021/03/20 03:44:47;;;;;;;28.40;14.93;;;;;;;7.78;54.33;100466.55;1793622;79;21111;-77
2021/03/20 03:47:17;;;;;;;31.85;14.33;;;;;;;7.82;54.38;100458.62;1794027;79;21166;-76
2021/03/20 03:49:44;;;;;;;28.15;13.32;;;;;;;7.86;54.25;100460.86;1796767;79;21072;-75
2021/03/20 03:52:13;;;;;;;30.62;14.47;;;;;;;7.87;54.14;100467.87;1795000;79;21134;-75
2021/03/20 03:54:42;;;;;;;24.85;13.95;;;;;;;7.89;54.07;100467.72;1794750;79;21557;-76
2021/03/20 03:57:34;;;;;;;34.38;14.85;;;;;;;7.89;54.04;100461.89;1791292;79;21190;-75
2021/03/20 04:00:40;;;;;;;34.80;15.43;;;;;;;7.94;54.01;100461.96;1793557;78;21186;-77
2021/03/20 04:03:37;;;;;;;32.93;16.97;;;;;;;7.95;54.05;100463.17;1790193;79;21106;-78
2021/03/20 04:06:32;;;;;;;33.88;17.98;;;;;;;7.95;53.90;100460.52;1782170;78;21051;-77
2021/03/20 04:09:18;;;;;;;30.92;16.17;;;;;;;7.94;53.86;100465.97;1797912;78;21585;-76
2021/03/20 04:11:58;;;;;;;32.60;16.77;;;;;;;7.90;53.84;100466.73;1794309;79;21222;-75
2021/03/20 04:14:53;;;;;;;30.20;16.67;;;;;;;7.89;53.90;100462.39;1811382;78;21122;-75
2021/03/20 04:17:41;;;;;;;38.75;17.98;;;;;;;7.91;53.99;100466.27;1810327;78;21155;-75
2021/03/20 04:20:19;;;;;;;26.57;16.10;;;;;;;7.92;53.94;100467.45;1783725;79;21102;-77
2021/03/20 04:23:00;;;;;;;31.23;16.97;;;;;;;7.91;53.96;100469.77;1773894;80;21179;-75
2021/03/20 04:25:42;;;;;;;24.50;13.68;;;;;;;7.93;53.92;100462.95;1778459;79;21176;-75
2021/03/20 04:28:48;;;;;;;40.23;19.50;;;;;;;7.98;53.91;100466.03;1778232;79;21130;-76
2021/03/20 04:31:27;;;;;;;41.02;18.65;;;;;;;8.03;53.75;100466.45;1788409;78;21223;-75
2021/03/20 04:34:14;;;;;;;43.15;20.30;;;;;;;8.12;53.68;100475.77;1797362;79;21326;-77
2021/03/20 04:36:51;;;;;;;30.10;17.05;;;;;;;8.13;53.56;100475.31;1767544;80;21136;-76
2021/03/20 04:39:22;;;;;;;24.90;14.90;;;;;;;8.15;53.50;100474.66;1816140;78;21158;-75
2021/03/20 04:41:52;;;;;;;24.75;13.62;;;;;;;8.17;53.43;100470.51;1795318;78;21141;-76
2021/03/20 04:44:19;;;;;;;32.10;18.50;;;;;;;8.21;53.41;100478.58;1790860;79;21051;-76
2021/03/20 04:46:48;;;;;;;26.87;15.43;;;;;;;8.24;53.28;100479.64;1812849;79;21165;-76
2021/03/20 04:49:43;;;;;;;28.70;15.88;;;;;;;8.27;53.15;100484.20;1786398;79;21661;-76
2021/03/20 04:52:22;;;;;;;32.63;17.40;;;;;;;8.32;52.97;100488.62;1782530;78;21138;-76
2021/03/20 04:54:49;;;;;;;28.38;15.30;;;;;;;8.33;52.85;100488.13;1782250;80;21154;-76
2021/03/20 04:57:36;;;;;;;25.90;13.62;;;;;;;8.29;52.67;100489.39;1782112;80;21157;-74
2021/03/20 05:00:27;;;;;;;27.77;14.85;;;;;;;8.29;52.67;100489.39;1781625;80;21173;-75
2021/03/20 05:03:20;;;;;;;25.35;13.62;;;;;;;8.31;52.94;100496.28;1782674;80;21057;-75
2021/03/20 05:06:08;;;;;;;18.40;11.10;;;;;;;8.30;52.89;100495.07;1783332;79;21228;-75
2021/03/20 05:08:45;;;;;;;20.52;11.73;;;;;;;8.21;52.88;100490.59;1788738;79;21091;-75
2021/03/20 05:11:18;;;;;;;22.90;11.85;;;;;;;8.16;53.16;100496.84;1782918;80;21114;-76
2021/03/20 05:14:08;;;;;;;26.57;12.75;;;;;;;8.09;53.32;100497.42;1782800;79;21276;-76
2021/03/20 05:16:51;;;;;;;22.60;13.40;;;;;;;7.99;53.39;100499.23;1782850;80;21078;-76
2021/03/20 05:19:20;;;;;;;24.60;14.05;;;;;;;7.91;53.59;100503.11;1783668;78;21066;-75
2021/03/20 05:21:50;;;;;;;26.52;15.45;;;;;;;7.82;53.63;100511.95;1782864;80;21153;-75
2021/03/20 05:24:21;;;;;;;21.75;13.53;;;;;;;7.76;53.97;100509.81;1782863;80;21512;-75
2021/03/20 05:26:49;;;;;;;24.98;14.18;;;;;;;7.72;54.02;100511.94;1784077;79;21066;-74
2021/03/20 05:29:16;;;;;;;28.25;15.03;;;;;;;7.72;54.09;100509.73;1782705;79;21177;-75
2021/03/20 05:31:43;;;;;;;;;;;;;;;7.73;54.11;100512.28;1784724;79;21169;-76
2021/03/20 05:34:37;;;;;;;31.97;18.13;;;;;;;7.68;54.14;100511.86;1782743;80;20303;-75
2021/03/20 05:37:06;;;;;;;32.42;19.02;;;;;;;7.66;54.25;100511.63;1780979;79;21209;-74
2021/03/20 05:39:33;;;;;;;35.73;20.50;;;;;;;7.65;54.28;100516.62;1781364;80;21201;-74
2021/03/20 05:42:18;;;;;;;42.05;22.65;;;;;;;7.65;54.29;100519.28;1779915;80;21476;-75
2021/03/20 05:45:08;;;;;;;37.85;20.05;;;;;;;7.67;54.33;100523.98;1779858;80;21218;-74
2021/03/20 05:47:55;;;;;;;34.78;20.23;;;;;;;7.65;54.35;100520.62;1787667;79;21174;-75
2021/03/20 05:50:33;;;;;;;27.58;18.95;;;;;;;7.62;54.42;100521.23;1787553;79;21603;-74
2021/03/20 05:53:42;;;;;;;25.95;17.23;;;;;;;7.67;54.55;100525.31;1795733;79;21193;-75
2021/03/20 05:56:38;;;;;;;29.57;18.07;;;;;;;7.68;54.53;100525.69;1795965;79;21129;-75
2021/03/20 06:00:04;;;;;;;31.80;17.90;;;;;;;7.71;54.51;100532.05;1781599;80;21190;-76
2021/03/20 06:02:58;;;;;;;29.52;17.45;;;;;;;7.75;54.56;100533.47;1794227;79;21177;-74
2021/03/20 06:05:44;;;;;;;29.42;17.07;;;;;;;7.79;54.50;100535.72;1768800;81;21212;-75
2021/03/20 06:08:26;;;;;;;31.57;19.80;;;;;;;7.81;54.60;100535.57;1794882;79;21162;-76
2021/03/20 06:11:23;;;;;;;32.10;18.57;;;;;;;7.86;54.61;100537.36;1781265;80;21377;-76
2021/03/20 06:14:19;;;;;;;29.23;17.00;;;;;;;7.91;54.50;100542.27;1795403;79;21174;-76
2021/03/20 06:17:14;;;;;;;21.07;13.35;;;;;;;7.96;54.27;100542.20;1795497;79;21132;-76
2021/03/20 06:20:30;;;;;;;21.68;14.03;;;;;;;7.95;54.19;100543.66;1813644;78;21227;-79
2021/03/20 06:23:37;;;;;;;19.87;13.08;;;;;;;7.89;54.21;100544.56;1778590;79;21192;-75
2021/03/20 06:26:11;;;;;;;15.60;11.33;;;;;;;7.87;54.19;100551.88;1768608;80;21157;-75
2021/03/20 06:28:49;;;;;;;21.02;13.22;;;;;;;7.88;54.40;100556.22;1820672;78;21204;-75
2021/03/20 06:31:35;;;;;;;18.67;12.35;;;;;;;7.89;54.46;100554.39;1820420;78;21731;-76
2021/03/20 06:34:24;;;;;;;15.85;11.57;;;;;;;7.91;54.28;100556.45;1766374;80;21194;-75
2021/03/20 06:37:13;;;;;;;18.82;13.22;;;;;;;7.94;54.43;100556.16;1815717;78;21211;-75
2021/03/20 06:39:58;;;;;;;23.57;13.58;;;;;;;7.97;54.44;100558.55;1799439;79;26340;-75
2021/03/20 06:42:33;;;;;;;24.20;13.93;;;;;;;8.03;54.46;100561.14;1789845;79;21197;-75
2021/03/20 06:45:09;;;;;;;16.87;11.78;;;;;;;8.04;54.43;100562.36;1781748;80;21169;-76
2021/03/20 06:47:38;;;;;;;20.30;14.90;;;;;;;8.06;54.36;100559.55;1778153;80;21137;-76
2021/03/20 06:50:20;;;;;;;23.25;13.45;;;;;;;8.25;53.82;100556.03;1774941;79;21189;-75
2021/03/20 06:52:53;;;;;;;20.00;14.63;;;;;;;8.12;54.07;100559.81;1828550;78;21685;-76
2021/03/20 06:55:25;;;;;;;20.55;13.20;;;;;;;8.11;54.05;100570.14;1812444;79;21209;-75
2021/03/20 06:57:52;;;;;;;27.32;16.12;;;;;;;8.11;54.15;100557.30;1789383;79;21136;-75
2021/03/20 07:00:27;;;;;;;29.98;19.48;;;;;;;8.14;54.12;100559.20;1781022;80;21197;-74
2021/03/20 07:03:12;;;;;;;29.82;18.00;;;;;;;8.21;54.13;100565.30;1781526;80;21195;-75
2021/03/20 07:05:56;;;;;;;29.05;18.70;;;;;;;8.25;54.04;100558.70;1781870;80;21188;-76
2021/03/20 07:08:34;;;;;;;27.02;17.52;;;;;;;8.30;53.81;100568.45;1782143;80;21196;-75
2021/03/20 07:11:41;;;;;;;25.70;16.50;;;;;;;8.36;53.63;100567.91;1818678;77;23100;-75
2021/03/20 07:14:33;;;;;;;17.17;12.05;;;;;;;8.30;53.62;100573.80;1857421;77;21057;-75
2021/03/20 07:17:01;;;;;;;19.98;12.35;;;;;;;8.27;53.56;100572.77;1823889;78;21433;-76
2021/03/20 07:19:28;;;;;;;22.20;12.90;;;;;;;8.29;53.61;100579.63;1815461;78;21188;-76
2021/03/20 07:22:04;;;;;;;28.12;15.32;;;;;;;8.33;53.65;100573.53;1823844;77;21193;-76
2021/03/20 07:24:38;;;;;;;24.90;12.25;;;;;;;8.35;53.44;100574.21;1823818;78;21173;-76
2021/03/20 07:27:16;;;;;;;24.32;12.70;;;;;;;8.36;53.48;100573.25;1823600;78;21196;-75
2021/03/20 07:29:54;;;;;;;23.95;11.60;;;;;;;8.38;53.51;100577.98;1824129;78;21692;-75
2021/03/20 07:32:32;;;;;;;20.08;10.68;;;;;;;8.41;53.46;100581.70;1823826;78;21133;-76
2021/03/20 07:35:23;;;;;;;18.85;10.98;;;;;;;8.42;53.48;100587.39;1834591;77;21682;-76
2021/03/20 07:37:52;;;;;;;22.10;11.57;;;;;;;8.42;53.43;100590.06;1829748;77;21176;-75
2021/03/20 07:40:31;;;;;;;22.52;10.68;;;;;;;8.44;53.27;100594.75;1793767;78;21140;-77
2021/03/20 07:43:21;;;;;;;14.63;8.73;;;;;;;8.46;53.24;100602.14;1843129;77;21096;-75
2021/03/20 07:45:52;;;;;;;13.08;6.53;;;;;;;8.46;53.17;100604.81;1847199;77;21156;-76
2021/03/20 07:48:28;;;;;;;9.68;6.65;;;;;;;8.44;53.04;100605.43;1828050;77;21194;-75
2021/03/20 07:51:16;;;;;;;8.13;6.08;;;;;;;8.41;52.89;100601.73;1846891;77;21181;-77
2021/03/20 07:53:47;;;;;;;11.53;6.50;;;;;;;8.36;52.89;100604.82;1843167;77;21639;-76
2021/03/20 07:56:36;;;;;;;9.35;5.75;;;;;;;8.34;52.99;100605.89;1833635;77;21125;-76
2021/03/20 07:59:29;;;;;;;8.28;6.00;;;;;;;8.32;53.09;100607.88;1806811;78;21248;-77
2021/03/20 08:02:01;;;;;;;7.72;6.12;;;;;;;8.31;53.15;100606.16;1833460;77;21184;-75
2021/03/20 08:04:57;;;;;;;8.18;6.67;;;;;;;8.33;53.18;100608.22;1812277;78;21200;-77
2021/03/20 08:07:52;;;;;;;11.73;5.70;;;;;;;8.34;53.23;100612.56;1821360;78;21206;-75
2021/03/20 08:10:33;;;;;;;9.73;7.08;;;;;;;8.36;53.13;100611.95;1812407;79;21168;-75
2021/03/20 08:13:17;;;;;;;11.43;7.00;;;;;;;8.36;53.16;100618.62;1823637;78;21112;-75
2021/03/20 08:15:50;;;;;;;10.60;5.95;;;;;;;8.38;53.05;100621.52;1811704;78;21552;-76
2021/03/20 08:18:22;;;;;;;10.18;6.62;;;;;;;8.38;52.90;100620.69;1821594;78;21512;-78
2021/03/20 08:21:27;;;;;;;7.97;4.87;;;;;;;8.38;53.07;100628.20;1806469;79;21177;-78
2021/03/20 08:24:31;;;;;;;8.50;5.53;;;;;;;8.40;53.06;100629.38;1800590;78;21173;-77
2021/03/20 08:27:23;;;;;;;7.60;5.65;;;;;;;8.43;53.22;100626.44;1819977;78;21172;-76
2021/03/20 08:30:00;;;;;;;10.80;7.05;;;;;;;8.48;53.26;100624.19;1841156;77;21181;-76
2021/03/20 08:32:43;;;;;;;10.08;7.50;;;;;;;8.51;53.21;100623.92;1833391;77;21148;-76
2021/03/20 08:35:24;;;;;;;10.68;7.30;;;;;;;8.76;52.79;100620.30;1828620;77;21185;-76
2021/03/20 08:38:15;;;;;;;9.93;7.90;;;;;;;8.88;52.50;100620.02;1792659;78;21444;-77
2021/03/20 08:41:05;;;;;;;6.08;5.35;;;;;;;8.85;52.74;100620.78;1822963;78;21261;-78
2021/03/20 08:44:15;;;;;;;7.03;5.10;;;;;;;9.10;52.23;100619.34;1802405;79;21161;-76
2021/03/20 08:47:00;;;;;;;8.15;6.08;;;;;;;9.05;52.17;100629.12;1824863;78;21188;-75
2021/03/20 08:49:43;;;;;;;7.42;5.90;;;;;;;9.06;52.06;100625.46;1804114;78;22201;-77
2021/03/20 08:52:28;;;;;;;10.05;6.78;;;;;;;9.10;52.06;100624.19;1820964;78;21189;-77
2021/03/20 08:55:19;;;;;;;9.20;6.80;;;;;;;9.15;52.08;100621.92;1794060;78;21199;-76
2021/03/20 08:58:18;;;;;;;8.48;6.33;;;;;;;9.21;52.16;100629.00;1819060;78;21192;-77
2021/03/20 09:01:20;;;;;;;15.33;9.17;;;;;;;9.23;52.01;100630.56;1816895;78;21184;-77
2021/03/20 09:03:50;;;;;;;10.45;6.47;;;;;;;9.25;51.88;100635.75;1811449;78;21207;-75
2021/03/20 09:06:39;;;;;;;8.48;6.50;;;;;;;9.25;52.10;100633.91;1800346;78;21205;-77
2021/03/20 09:09:24;;;;;;;8.13;6.03;;;;;;;9.26;52.16;100637.42;1813502;78;21135;-78
2021/03/20 09:12:21;;;;;;;7.20;5.50;;;;;;;9.29;52.19;100638.48;1793350;78;21173;-76
2021/03/20 09:14:50;;;;;;;8.83;6.15;;;;;;;9.31;52.11;100641.38;1807491;78;21155;-75
2021/03/20 09:17:32;;;;;;;7.25;5.80;;;;;;;9.34;52.10;100649.58;1811315;78;21161;-77
2021/03/20 09:20:30;;;;;;;7.83;5.33;;;;;;;9.08;52.57;100650.23;1790252;78;21201;-75
2021/03/20 09:22:58;;;;;;;7.17;5.12;;;;;;;8.98;52.77;100641.86;1791779;79;21184;-77
2021/03/20 09:25:38;;;;;;;9.70;6.45;;;;;;;8.97;52.74;100653.04;1812088;78;21286;-76
2021/03/20 09:28:27;;;;;;;7.50;5.28;;;;;;;8.92;53.06;100653.97;1799222;78;21220;-77
2021/03/20 09:30:49;;;;;;;5.03;3.70;;;;;;;8.92;53.24;100648.62;1818506;78;21221;-75
2021/03/20 09:33:33;;;;;;;4.67;3.30;;;;;;;9.10;52.74;100648.23;1850666;77;21124;-75
2021/03/20 09:36:31;;;;;;;4.65;3.55;;;;;;;8.96;53.03;100650.52;1839377;77;20971;-76
2021/03/20 09:38:58;;;;;;;6.08;4.10;;;;;;;8.94;53.22;100653.81;1827206;77;20948;-76
2021/03/20 09:41:32;;;;;;;7.97;4.30;;;;;;;8.94;53.29;100660.00;1837237;77;21188;-75
2021/03/20 09:44:05;;;;;;;5.90;4.35;;;;;;;8.92;53.41;100659.31;1840970;77;21604;-77
2021/03/20 09:46:45;;;;;;;6.05;5.12;;;;;;;8.94;53.52;100663.16;1825306;77;21141;-74
2021/03/20 09:49:24;;;;;;;5.92;4.03;;;;;;;8.96;53.48;100667.89;1839112;77;21215;-76
2021/03/20 09:51:59;;;;;;;6.47;3.87;;;;;;;8.93;53.38;100669.00;1819702;78;21204;-76
2021/03/20 09:54:40;;;;;;;7.42;4.72;;;;;;;8.93;53.17;100671.67;1822887;78;21176;-75
2021/03/20 09:57:12;;;;;;;7.03;5.15;;;;;;;9.10;53.01;100665.61;1811893;78;21671;-75
2021/03/20 09:59:46;;;;;;;6.37;5.77;;;;;;;9.18;52.94;100673.41;1803553;78;21173;-76
2021/03/20 10:02:27;;;;;;;5.42;4.92;;;;;;;9.08;52.95;100670.27;1818937;78;21772;-75
2021/03/20 10:05:04;;;;;;;6.42;5.42;;;;;;;9.20;52.77;100670.93;1841113;77;21196;-76
2021/03/20 10:07:33;;;;;;;6.00;5.12;;;;;;;9.44;52.27;100676.28;1812715;79;21192;-76
2021/03/20 10:10:16;;;;;;;5.17;4.67;;;;;;;9.38;52.20;100677.21;1814479;78;21179;-75
2021/03/20 10:12:52;;;;;;;4.78;4.28;;;;;;;9.30;52.34;100677.59;1804301;78;21192;-76
2021/03/20 10:15:34;;;;;;;5.30;4.33;;;;;;;9.28;52.36;100678.23;1842011;77;21713;-78
2021/03/20 10:18:15;;;;;;;4.87;4.47;;;;;;;9.29;52.38;100686.09;1818910;78;21146;-76
2021/03/20 10:20:56;;;;;;;5.67;4.80;;;;;;;9.04;52.76;100688.91;1831017;77;21546;-77
2021/03/20 10:23:42;;;;;;;4.40;4.05;;;;;;;8.96;52.96;100693.27;1824111;77;21121;-77
2021/03/20 10:26:37;;;;;;;4.62;4.17;;;;;;;8.95;53.05;100699.58;1824990;77;21002;-76
2021/03/20 10:29:22;;;;;;;5.40;4.28;;;;;;;8.92;53.19;100696.71;1791148;78;21122;-77
2021/03/20 10:31:52;;;;;;;4.10;3.55;;;;;;;8.91;53.17;100697.70;1821670;78;21560;-75
2021/03/20 10:34:25;;;;;;;4.92;3.87;;;;;;;8.88;53.20;100696.64;1800677;79;21140;-76
2021/03/20 10:37:07;;;;;;;4.12;3.17;;;;;;;8.88;53.21;100695.30;1816045;78;21160;-76
2021/03/20 10:39:38;;;;;;;4.72;3.62;;;;;;;8.88;53.23;100697.97;1820991;78;21392;-76
2021/03/20 10:42:29;;;;;;;4.37;3.10;;;;;;;8.88;53.24;100699.31;1820173;78;21189;-75
2021/03/20 10:45:00;;;;;;;3.75;3.08;;;;;;;8.86;53.16;100700.80;1780245;78;21453;-75
2021/03/20 10:47:36;;;;;;;5.40;3.17;;;;;;;8.83;53.11;100700.23;1856334;77;21093;-76
2021/03/20 10:50:16;;;;;;;4.00;3.42;;;;;;;8.79;53.21;100706.34;1827361;77;21161;-75
2021/03/20 10:52:43;;;;;;;4.87;3.10;;;;;;;8.78;53.33;100698.48;1854116;77;21481;-76
2021/03/20 10:55:23;;;;;;;3.85;3.02;;;;;;;8.80;53.29;100704.02;1854957;77;21356;-74
2021/03/20 10:57:53;;;;;;;4.42;3.30;;;;;;;8.80;53.25;100698.67;1856587;77;20974;-76
2021/03/20 11:00:26;;;;;;;3.77;3.47;;;;;;;8.87;53.20;100702.97;1846091;77;21176;-77
2021/03/20 11:02:53;;;;;;;4.12;3.72;;;;;;;8.89;53.11;100700.98;1812399;79;21245;-75
2021/03/20 11:05:28;;;;;;;4.55;3.70;;;;;;;8.82;53.42;100711.91;1801116;78;21180;-76
2021/03/20 11:08:15;;;;;;;4.03;3.62;;;;;;;8.82;53.38;100714.58;1829955;78;20966;-75
2021/03/20 11:10:44;;;;;;;5.10;3.70;;;;;;;8.79;53.28;100709.50;1829147;78;21006;-74
2021/03/20 11:13:35;;;;;;;3.58;3.15;;;;;;;8.76;53.28;100711.11;1829969;78;21152;-74
2021/03/20 11:16:13;;;;;;;3.50;3.05;;;;;;;9.00;52.73;100712.05;1829910;78;21212;-76
2021/03/20 11:18:45;;;;;;;3.77;3.27;;;;;;;9.03;52.43;100707.23;1818546;78;21181;-75
2021/03/20 11:21:26;;;;;;;4.45;3.45;;;;;;;9.06;52.25;100713.64;1831949;78;21172;-75
2021/03/20 11:23:56;;;;;;;3.35;3.05;;;;;;;9.05;52.20;100715.97;1832070;78;21204;-76
2021/03/20 11:26:35;;;;;;;4.47;3.42;;;;;;;9.07;52.05;100717.15;1832241;78;21675;-76
2021/03/20 11:29:05;;;;;;;4.65;3.08;;;;;;;9.10;51.97;100719.05;1832242;78;21172;-76
2021/03/20 11:31:51;;;;;;;3.95;3.52;;;;;;;9.09;51.78;100714.70;1830769;78;21225;-76
2021/03/20 11:34:26;;;;;;;3.72;3.15;;;;;;;9.10;51.82;100720.39;1831196;78;21180;-76
2021/03/20 11:36:55;;;;;;;4.37;3.58;;;;;;;9.11;51.90;100720.73;1833987;78;21168;-75
2021/03/20 11:39:25;;;;;;;4.35;3.77;;;;;;;9.11;51.91;100714.05;1828880;78;21180;-76
2021/03/20 11:42:05;;;;;;;5.80;4.60;;;;;;;9.12;51.87;100714.39;1832565;78;21193;-76
2021/03/20 11:44:33;;;;;;;5.20;4.28;;;;;;;9.15;51.86;100710.11;1830393;78;21176;-77
2021/03/20 11:47:02;;;;;;;7.58;5.08;;;;;;;9.13;51.88;100713.44;1832039;78;21200;-76
2021/03/20 11:49:49;;;;;;;5.00;3.92;;;;;;;8.95;52.30;100708.92;1826279;78;21112;-75
2021/03/20 11:52:26;;;;;;;5.00;3.70;;;;;;;9.03;52.26;100717.08;1767495;79;21100;-76
2021/03/20 11:55:04;;;;;;;4.37;3.97;;;;;;;8.85;52.74;100711.60;1768341;79;21650;-76
2021/03/20 11:57:38;;;;;;;5.55;3.50;;;;;;;8.83;52.95;100709.58;1799364;79;21164;-77
2021/03/20 12:00:42;;;;;;;5.10;3.17;;;;;;;8.83;52.71;100715.76;1795137;78;21912;-76
2021/03/20 12:03:33;;;;;;;5.90;4.37;;;;;;;8.81;52.59;100714.20;1818294;78;21192;-75
2021/03/20 12:06:19;;;;;;;5.35;3.75;;;;;;;8.83;52.64;100718.92;1800397;79;21183;-77
2021/03/20 12:08:50;;;;;;;5.33;3.75;;;;;;;8.79;52.78;100717.02;1799252;79;21673;-76
2021/03/20 12:11:19;;;;;;;5.42;4.00;;;;;;;8.78;52.77;100718.02;1768745;79;21176;-75
2021/03/20 12:13:54;;;;;;;4.42;3.92;;;;;;;8.75;52.82;100715.61;1799996;79;21440;-76
2021/03/20 12:16:31;;;;;;;5.60;4.28;;;;;;;8.98;52.44;100712.66;1814728;78;21160;-77
2021/03/20 12:19:11;;;;;;;4.72;3.98;;;;;;;9.14;52.10;100704.92;1801044;78;21158;-76
2021/03/20 12:22:02;;;;;;;4.28;3.72;;;;;;;9.25;51.90;100706.08;1799799;79;21173;-76